Old Cairo, Mississippi
Current Conditions -  °F | °C
As of 2:15 PM on Thursday 30 Oct 2014 (Local Time) from KCRX Reporting Station
Clear Clear  
Wind Chill: 66°   Ceiling: Unl
Heat Index: 66°   Visibility: 10mi
Dew Point: 36°   Wind: 7mph
Humidity: 32%   Direction: 320°NW
Pressure: 30.08"   Gusts: NA
Location:  34.6741°N, 88.5234°W
Report Text: KCRX 301915Z AUTO 32006KT 10SM CLR 19/02 A3008 RMK AO2
Loading
Personal Weather Stations






























Interactive Weather Map
Tropical Storm Tracking
New forecast layout! Learn more

10-Day Weather Forecast

Advertisements
Track Severe Weather on mobile